sensor_id;sensor_type;location;lat;lon;timestamp;pressure;altitude;pressure_sealevel;temperature;humidity
47054;BME280;32811;52.382;5.270;2023-10-13T00:01:56;101194.25;;;15.70;100.00
47054;BME280;32811;52.382;5.270;2023-10-13T00:04:26;101178.69;;;15.64;100.00
47054;BME280;32811;52.382;5.270;2023-10-13T00:06:53;101192.47;;;15.76;100.00
47054;BME280;32811;52.382;5.270;2023-10-13T00:09:23;101182.94;;;15.74;100.00
47054;BME280;32811;52.382;5.270;2023-10-13T00:11:59;101176.88;;;15.69;100.00
47054;BME280;32811;52.382;5.270;2023-10-13T00:14:29;101180.34;;;15.74;100.00
47054;BME280;32811;52.382;5.270;2023-10-13T00:17:06;101178.63;;;15.71;100.00
47054;BME280;32811;52.382;5.270;2023-10-13T00:19:42;101174.25;;;15.73;100.00
47054;BME280;32811;52.382;5.270;2023-10-13T00:22:14;101150.09;;;15.61;100.00
47054;BME280;32811;52.382;5.270;2023-10-13T00:24:43;101167.34;;;15.72;100.00
47054;BME280;32811;52.382;5.270;2023-10-13T00:27:37;101080.38;;;15.14;100.00
47054;BME280;32811;52.382;5.270;2023-10-13T00:35:17;101157.78;;;15.71;100.00
47054;BME280;32811;52.382;5.270;2023-10-13T00:38:48;101162.16;;;15.71;100.00
47054;BME280;32811;52.382;5.270;2023-10-13T00:45:57;101062.22;;;15.11;100.00
47054;BME280;32811;52.382;5.270;2023-10-13T00:52:56;101151.72;;;15.69;100.00
47054;BME280;32811;52.382;5.270;2023-10-13T00:59:36;101142.19;;;15.70;100.00
47054;BME280;32811;52.382;5.270;2023-10-13T01:02:40;101073.22;;;15.35;100.00
47054;BME280;32811;52.382;5.270;2023-10-13T01:09:51;101122.19;;;15.75;100.00
47054;BME280;32811;52.382;5.270;2023-10-13T01:16:55;101032.69;;;15.15;100.00
47054;BME280;32811;52.382;5.270;2023-10-13T01:26:43;100981.72;;;15.02;100.00
47054;BME280;32811;52.382;5.270;2023-10-13T01:36:05;101090.06;;;15.77;100.00
47054;BME280;32811;52.382;5.270;2023-10-13T01:38:59;100982.44;;;15.15;100.00
47054;BME280;32811;52.382;5.270;2023-10-13T01:41:39;100996.16;;;15.26;100.00
47054;BME280;32811;52.382;5.270;2023-10-13T01:44:30;101015.97;;;15.36;100.00
47054;BME280;32811;52.382;5.270;2023-10-13T01:47:13;100959.19;;;15.03;100.00
47054;BME280;32811;52.382;5.270;2023-10-13T01:49:53;101004.66;;;15.39;100.00
47054;BME280;32811;52.382;5.270;2023-10-13T01:52:24;100965.09;;;15.15;100.00
47054;BME280;32811;52.382;5.270;2023-10-13T01:54:56;100981.50;;;15.21;100.00
47054;BME280;32811;52.382;5.270;2023-10-13T01:57:53;100982.34;;;15.23;100.00
47054;BME280;32811;52.382;5.270;2023-10-13T02:04:19;101000.31;;;15.40;100.00
47054;BME280;32811;52.382;5.270;2023-10-13T02:06:50;100993.41;;;15.39;100.00
47054;BME280;32811;52.382;5.270;2023-10-13T02:09:24;100935.75;;;15.07;100.00
47054;BME280;32811;52.382;5.270;2023-10-13T02:15:35;100958.13;;;15.19;100.00
47054;BME280;32811;52.382;5.270;2023-10-13T02:18:33;100951.19;;;15.18;100.00
47054;BME280;32811;52.382;5.270;2023-10-13T02:21:47;100928.75;;;15.11;100.00
47054;BME280;32811;52.382;5.270;2023-10-13T02:24:33;100935.69;;;15.10;100.00
47054;BME280;32811;52.382;5.270;2023-10-13T02:27:21;100960.59;;;15.30;100.00
47054;BME280;32811;52.382;5.270;2023-10-13T02:29:58;101024.19;;;15.69;100.00
47054;BME280;32811;52.382;5.270;2023-10-13T02:32:36;100938.09;;;15.24;100.00
47054;BME280;32811;52.382;5.270;2023-10-13T02:35:09;100984.56;;;15.50;100.00
47054;BME280;32811;52.382;5.270;2023-10-13T02:37:52;100940.69;;;15.26;100.00
47054;BME280;32811;52.382;5.270;2023-10-13T02:40:22;100966.50;;;15.41;100.00
47054;BME280;32811;52.382;5.270;2023-10-13T02:42:53;100922.53;;;15.23;100.00
47054;BME280;32811;52.382;5.270;2023-10-13T02:45:27;100893.31;;;15.05;100.00
47054;BME280;32811;52.382;5.270;2023-10-13T02:47:54;100908.72;;;15.19;100.00
47054;BME280;32811;52.382;5.270;2023-10-13T02:50:42;100882.75;;;15.16;100.00
47054;BME280;32811;52.382;5.270;2023-10-13T02:53:21;100906.03;;;15.24;100.00
47054;BME280;32811;52.382;5.270;2023-10-13T02:56:07;100939.50;;;15.48;100.00
47054;BME280;32811;52.382;5.270;2023-10-13T02:59:01;100893.06;;;15.22;100.00
47054;BME280;32811;52.382;5.270;2023-10-13T03:01:36;100860.28;;;15.12;100.00
47054;BME280;32811;52.382;5.270;2023-10-13T03:04:08;100929.09;;;15.48;100.00
47054;BME280;32811;52.382;5.270;2023-10-13T03:06:37;100865.50;;;15.10;100.00
47054;BME280;32811;52.382;5.270;2023-10-13T03:09:19;100891.16;;;15.35;100.00
47054;BME280;32811;52.382;5.270;2023-10-13T03:12:23;100854.22;;;15.11;100.00
47054;BME280;32811;52.382;5.270;2023-10-13T03:14:53;100848.97;;;15.14;100.00
47054;BME280;32811;52.382;5.270;2023-10-13T03:17:26;100904.00;;;15.47;100.00
47054;BME280;32811;52.382;5.270;2023-10-13T03:20:05;100891.91;;;15.43;100.00
47054;BME280;32811;52.382;5.270;2023-10-13T03:22:37;100913.34;;;15.61;100.00
47054;BME280;32811;52.382;5.270;2023-10-13T03:25:06;100854.75;;;15.35;100.00
47054;BME280;32811;52.382;5.270;2023-10-13T03:27:35;100874.47;;;15.48;100.00
47054;BME280;32811;52.382;5.270;2023-10-13T03:30:09;100890.78;;;15.61;100.00
47054;BME280;32811;52.382;5.270;2023-10-13T03:32:42;100859.72;;;15.49;100.00
47054;BME280;32811;52.382;5.270;2023-10-13T03:35:15;100861.38;;;15.54;100.00
47054;BME280;32811;52.382;5.270;2023-10-13T03:37:51;100840.72;;;15.45;100.00
47054;BME280;32811;52.382;5.270;2023-10-13T03:40:18;100840.75;;;15.44;100.00
47054;BME280;32811;52.382;5.270;2023-10-13T03:42:56;100867.44;;;15.56;100.00
47054;BME280;32811;52.382;5.270;2023-10-13T03:45:37;100872.56;;;15.60;100.00
47054;BME280;32811;52.382;5.270;2023-10-13T03:48:10;100862.25;;;15.53;100.00
47054;BME280;32811;52.382;5.270;2023-10-13T03:51:01;100841.59;;;15.44;100.00
47054;BME280;32811;52.382;5.270;2023-10-13T03:53:38;100838.06;;;15.48;100.00
47054;BME280;32811;52.382;5.270;2023-10-13T03:56:27;100805.25;;;15.40;100.00
47054;BME280;32811;52.382;5.270;2023-10-13T04:06:42;100693.38;;;14.91;100.00
47054;BME280;32811;52.382;5.270;2023-10-13T04:10:29;100672.53;;;14.94;100.00
47054;BME280;32811;52.382;5.270;2023-10-13T04:14:01;100775.63;;;15.50;100.00
47054;BME280;32811;52.382;5.270;2023-10-13T04:17:06;100778.22;;;15.50;100.00
47054;BME280;32811;52.382;5.270;2023-10-13T04:20:01;100683.75;;;14.98;100.00
47054;BME280;32811;52.382;5.270;2023-10-13T04:22:59;100653.63;;;14.85;100.00
47054;BME280;32811;52.382;5.270;2023-10-13T04:26:10;100686.09;;;15.12;100.00
47054;BME280;32811;52.382;5.270;2023-10-13T04:29:12;100650.06;;;14.89;100.00
47054;BME280;32811;52.382;5.270;2023-10-13T04:32:06;100645.78;;;14.86;100.00
47054;BME280;32811;52.382;5.270;2023-10-13T04:39:32;100651.81;;;14.90;100.00
47054;BME280;32811;52.382;5.270;2023-10-13T04:42:54;100629.34;;;14.87;100.00
47054;BME280;32811;52.382;5.270;2023-10-13T04:45:50;100727.22;;;15.41;100.00
47054;BME280;32811;52.382;5.270;2023-10-13T04:48:36;100595.03;;;14.67;100.00
47054;BME280;32811;52.382;5.270;2023-10-13T04:52:11;100627.56;;;14.89;100.00
47054;BME280;32811;52.382;5.270;2023-10-13T04:55:11;100633.63;;;14.90;100.00
47054;BME280;32811;52.382;5.270;2023-10-13T04:58:39;100598.31;;;14.77;100.00
47054;BME280;32811;52.382;5.270;2023-10-13T05:06:35;100570.75;;;14.69;100.00
47054;BME280;32811;52.382;5.270;2023-10-13T05:10:01;100598.94;;;14.91;100.00
47054;BME280;32811;52.382;5.270;2023-10-13T05:13:15;100667.31;;;15.46;100.00
47054;BME280;32811;52.382;5.270;2023-10-13T05:16:50;100624.13;;;15.35;100.00
47054;BME280;32811;52.382;5.270;2023-10-13T05:27:58;100651.00;;;15.83;100.00
47054;BME280;32811;52.382;5.270;2023-10-13T05:35:03;100550.66;;;15.26;100.00
47054;BME280;32811;52.382;5.270;2023-10-13T05:37:53;100596.97;;;15.50;100.00
47054;BME280;32811;52.382;5.270;2023-10-13T05:41:01;100658.69;;;15.87;100.00
47054;BME280;32811;52.382;5.270;2023-10-13T05:43:54;100659.50;;;15.91;100.00
47054;BME280;32811;52.382;5.270;2023-10-13T05:47:06;100583.91;;;15.53;100.00
47054;BME280;32811;52.382;5.270;2023-10-13T05:49:59;100596.06;;;15.51;100.00
47054;BME280;32811;52.382;5.270;2023-10-13T05:52:48;100635.53;;;15.76;100.00
47054;BME280;32811;52.382;5.270;2023-10-13T05:55:26;100660.34;;;15.93;100.00
47054;BME280;32811;52.382;5.270;2023-10-13T05:58:12;100648.28;;;15.89;100.00
47054;BME280;32811;52.382;5.270;2023-10-13T06:00:58;100638.78;;;15.86;100.00
47054;BME280;32811;52.382;5.270;2023-10-13T06:03:44;100626.69;;;15.85;100.00
47054;BME280;32811;52.382;5.270;2023-10-13T06:06:29;100623.16;;;15.86;100.00
47054;BME280;32811;52.382;5.270;2023-10-13T06:09:14;100622.19;;;15.92;100.00
47054;BME280;32811;52.382;5.270;2023-10-13T06:11:59;100619.81;;;15.81;100.00
47054;BME280;32811;52.382;5.270;2023-10-13T06:14:45;100615.38;;;15.85;100.00
47054;BME280;32811;52.382;5.270;2023-10-13T06:17:31;100601.72;;;15.75;100.00
47054;BME280;32811;52.382;5.270;2023-10-13T06:20:16;100616.38;;;15.79;100.00
47054;BME280;32811;52.382;5.270;2023-10-13T06:23:03;100586.28;;;15.64;100.00
47054;BME280;32811;52.382;5.270;2023-10-13T06:25:52;100612.03;;;15.78;100.00
47054;BME280;32811;52.382;5.270;2023-10-13T06:28:38;100616.38;;;15.79;100.00
47054;BME280;32811;52.382;5.270;2023-10-13T06:31:09;100615.47;;;15.80;100.00
47054;BME280;32811;52.382;5.270;2023-10-13T06:33:48;100607.75;;;15.77;100.00
47054;BME280;32811;52.382;5.270;2023-10-13T06:36:15;100605.16;;;15.77;100.00
47054;BME280;32811;52.382;5.270;2023-10-13T06:38:44;100598.34;;;15.68;100.00
47054;BME280;32811;52.382;5.270;2023-10-13T06:41:11;100604.50;;;15.64;100.00
47054;BME280;32811;52.382;5.270;2023-10-13T06:43:46;100606.25;;;15.64;100.00
47054;BME280;32811;52.382;5.270;2023-10-13T06:46:27;100582.22;;;15.51;100.00
47054;BME280;32811;52.382;5.270;2023-10-13T06:48:55;100596.88;;;15.56;100.00
47054;BME280;32811;52.382;5.270;2023-10-13T06:51:26;100572.84;;;15.42;100.00
47054;BME280;32811;52.382;5.270;2023-10-13T06:53:57;100590.00;;;15.52;100.00
47054;BME280;32811;52.382;5.270;2023-10-13T06:56:24;100577.03;;;15.51;100.00
47054;BME280;32811;52.382;5.270;2023-10-13T06:58:55;100553.09;;;15.33;100.00
47054;BME280;32811;52.382;5.270;2023-10-13T07:01:31;100583.13;;;15.50;100.00
47054;BME280;32811;52.382;5.270;2023-10-13T07:04:09;100568.66;;;15.36;100.00
47054;BME280;32811;52.382;5.270;2023-10-13T07:06:43;100581.31;;;15.53;100.00
47054;BME280;32811;52.382;5.270;2023-10-13T07:09:17;100553.78;;;15.43;100.00
47054;BME280;32811;52.382;5.270;2023-10-13T07:12:03;100565.66;;;15.56;100.00
47054;BME280;32811;52.382;5.270;2023-10-13T07:14:33;100569.09;;;15.57;100.00
47054;BME280;32811;52.382;5.270;2023-10-13T07:17:01;100549.09;;;15.61;100.00
47054;BME280;32811;52.382;5.270;2023-10-13T07:19:29;100555.03;;;15.67;100.00
47054;BME280;32811;52.382;5.270;2023-10-13T07:21:59;100549.00;;;15.65;100.00
47054;BME280;32811;52.382;5.270;2023-10-13T07:24:29;100547.81;;;15.80;100.00
47054;BME280;32811;52.382;5.270;2023-10-13T07:27:02;100533.09;;;15.79;100.00
47054;BME280;32811;52.382;5.270;2023-10-13T07:29:32;100505.31;;;15.80;100.00
47054;BME280;32811;52.382;5.270;2023-10-13T07:32:02;100521.41;;;15.98;100.00
47054;BME280;32811;52.382;5.270;2023-10-13T07:34:29;100537.06;;;15.95;100.00
47054;BME280;32811;52.382;5.270;2023-10-13T07:36:59;100524.06;;;15.94;100.00
47054;BME280;32811;52.382;5.270;2023-10-13T07:39:30;100536.81;;;16.08;100.00
47054;BME280;32811;52.382;5.270;2023-10-13T07:42:02;100534.00;;;16.15;100.00
47054;BME280;32811;52.382;5.270;2023-10-13T07:44:35;100515.75;;;16.17;100.00
47054;BME280;32811;52.382;5.270;2023-10-13T07:47:03;100504.28;;;16.24;100.00
47054;BME280;32811;52.382;5.270;2023-10-13T07:49:38;100518.63;;;16.40;100.00
47054;BME280;32811;52.382;5.270;2023-10-13T07:52:10;100510.09;;;16.35;100.00
47054;BME280;32811;52.382;5.270;2023-10-13T07:54:49;100508.03;;;16.48;100.00
47054;BME280;32811;52.382;5.270;2023-10-13T07:57:22;100513.44;;;16.40;100.00
47054;BME280;32811;52.382;5.270;2023-10-13T07:59:56;100515.84;;;16.48;100.00
47054;BME280;32811;52.382;5.270;2023-10-13T08:02:38;100492.41;;;16.48;100.00
47054;BME280;32811;52.382;5.270;2023-10-13T08:05:16;100496.34;;;16.63;100.00
47054;BME280;32811;52.382;5.270;2023-10-13T08:08:05;100487.66;;;16.64;100.00
47054;BME280;32811;52.382;5.270;2023-10-13T08:10:41;100482.34;;;16.67;100.00
47054;BME280;32811;52.382;5.270;2023-10-13T08:13:12;100495.94;;;16.80;100.00
47054;BME280;32811;52.382;5.270;2023-10-13T08:15:42;100490.69;;;16.82;100.00
47054;BME280;32811;52.382;5.270;2023-10-13T08:18:16;100485.25;;;16.89;100.00
47054;BME280;32811;52.382;5.270;2023-10-13T08:21:03;100459.53;;;16.77;100.00
47054;BME280;32811;52.382;5.270;2023-10-13T08:23:30;100473.81;;;16.95;100.00
47054;BME280;32811;52.382;5.270;2023-10-13T08:26:15;100473.00;;;16.93;100.00
47054;BME280;32811;52.382;5.270;2023-10-13T08:29:17;100452.16;;;16.93;100.00
47054;BME280;32811;52.382;5.270;2023-10-13T08:31:52;100461.50;;;17.00;100.00
47054;BME280;32811;52.382;5.270;2023-10-13T08:34:32;100439.31;;;16.85;100.00
47054;BME280;32811;52.382;5.270;2023-10-13T08:37:10;100446.94;;;16.93;100.00
47054;BME280;32811;52.382;5.270;2023-10-13T08:39:53;100457.81;;;17.07;100.00
47054;BME280;32811;52.382;5.270;2023-10-13T08:42:46;100459.78;;;16.99;100.00
47054;BME280;32811;52.382;5.270;2023-10-13T08:45:14;100446.97;;;16.91;100.00
47054;BME280;32811;52.382;5.270;2023-10-13T08:48:09;100438.03;;;17.00;100.00
47054;BME280;32811;52.382;5.270;2023-10-13T08:53:19;100425.19;;;16.94;100.00
47054;BME280;32811;52.382;5.270;2023-10-13T08:56:11;100429.53;;;16.93;100.00
47054;BME280;32811;52.382;5.270;2023-10-13T08:58:47;100435.53;;;16.97;100.00
47054;BME280;32811;52.382;5.270;2023-10-13T09:01:29;100414.69;;;16.97;100.00
47054;BME280;32811;52.382;5.270;2023-10-13T09:04:16;100415.56;;;16.96;100.00
47054;BME280;32811;52.382;5.270;2023-10-13T09:12:12;100399.88;;;16.97;100.00
47054;BME280;32811;52.382;5.270;2023-10-13T09:14:43;100397.22;;;16.99;100.00
47054;BME280;32811;52.382;5.270;2023-10-13T09:17:27;100386.88;;;16.96;100.00
47054;BME280;32811;52.382;5.270;2023-10-13T09:20:04;100387.88;;;16.92;100.00
47054;BME280;32811;52.382;5.270;2023-10-13T09:22:56;100386.56;;;17.07;100.00
47054;BME280;32811;52.382;5.270;2023-10-13T09:25:30;100391.69;;;17.10;100.00
47054;BME280;32811;52.382;5.270;2023-10-13T09:28:12;100377.84;;;17.08;100.00
47054;BME280;32811;52.382;5.270;2023-10-13T09:30:49;100375.97;;;17.13;100.00
47054;BME280;32811;52.382;5.270;2023-10-13T09:33:23;100382.88;;;17.14;100.00
47054;BME280;32811;52.382;5.270;2023-10-13T09:36:00;100359.50;;;17.11;100.00
47054;BME280;32811;52.382;5.270;2023-10-13T09:38:27;100358.66;;;17.10;100.00
47054;BME280;32811;52.382;5.270;2023-10-13T09:40:56;100342.88;;;17.15;100.00
47054;BME280;32811;52.382;5.270;2023-10-13T09:43:24;100357.94;;;17.33;100.00
47054;BME280;32811;52.382;5.270;2023-10-13T09:45:58;100346.19;;;17.48;100.00
47054;BME280;32811;52.382;5.270;2023-10-13T09:48:45;100335.16;;;17.38;100.00
47054;BME280;32811;52.382;5.270;2023-10-13T09:51:16;100293.03;;;17.24;100.00
47054;BME280;32811;52.382;5.270;2023-10-13T09:54:08;100332.50;;;17.40;100.00
47054;BME280;32811;52.382;5.270;2023-10-13T09:57:04;100300.28;;;17.41;100.00
47054;BME280;32811;52.382;5.270;2023-10-13T09:59:42;100301.81;;;17.48;100.00
47054;BME280;32811;52.382;5.270;2023-10-13T10:02:18;100306.81;;;17.54;100.00
47054;BME280;32811;52.382;5.270;2023-10-13T10:04:56;100288.19;;;17.38;100.00
47054;BME280;32811;52.382;5.270;2023-10-13T10:07:42;100297.53;;;17.46;100.00
47054;BME280;32811;52.382;5.270;2023-10-13T10:10:11;100286.44;;;17.39;100.00
47054;BME280;32811;52.382;5.270;2023-10-13T10:12:57;100285.56;;;17.40;100.00
47054;BME280;32811;52.382;5.270;2023-10-13T10:15:34;100310.66;;;17.44;100.00
47054;BME280;32811;52.382;5.270;2023-10-13T10:18:02;100311.34;;;17.49;100.00
47054;BME280;32811;52.382;5.270;2023-10-13T10:20:35;100292.66;;;17.61;100.00
47054;BME280;32811;52.382;5.270;2023-10-13T10:23:09;100278.59;;;17.66;100.00
47054;BME280;32811;52.382;5.270;2023-10-13T10:25:48;100303.44;;;17.77;100.00
47054;BME280;32811;52.382;5.270;2023-10-13T10:28:17;100268.59;;;17.78;100.00
47054;BME280;32811;52.382;5.270;2023-10-13T10:30:45;100274.63;;;18.05;100.00
47054;BME280;32811;52.382;5.270;2023-10-13T10:33:12;100258.63;;;18.15;100.00
47054;BME280;32811;52.382;5.270;2023-10-13T10:35:45;100265.56;;;18.39;100.00
47054;BME280;32811;52.382;5.270;2023-10-13T10:38:16;100265.81;;;18.33;100.00
47054;BME280;32811;52.382;5.270;2023-10-13T10:43:18;100263.84;;;18.62;100.00
47054;BME280;32811;52.382;5.270;2023-10-13T10:45:59;100252.78;;;18.79;100.00
47054;BME280;32811;52.382;5.270;2023-10-13T10:48:26;100233.28;;;18.87;100.00
47054;BME280;32811;52.382;5.270;2023-10-13T10:50:59;100206.19;;;18.88;100.00
47054;BME280;32811;52.382;5.270;2023-10-13T10:53:33;100244.09;;;19.00;100.00
47054;BME280;32811;52.382;5.270;2023-10-13T10:56:13;100230.66;;;19.10;100.00
47054;BME280;32811;52.382;5.270;2023-10-13T10:58:52;100228.44;;;19.21;100.00
47054;BME280;32811;52.382;5.270;2023-10-13T11:01:28;100212.94;;;19.16;100.00
47054;BME280;32811;52.382;5.270;2023-10-13T11:04:05;100215.53;;;18.96;100.00
47054;BME280;32811;52.382;5.270;2023-10-13T11:06:35;100220.25;;;18.86;100.00
47054;BME280;32811;52.382;5.270;2023-10-13T11:09:09;100206.66;;;18.76;100.00
47054;BME280;32811;52.382;5.270;2023-10-13T11:11:47;100201.50;;;18.75;100.00
47054;BME280;32811;52.382;5.270;2023-10-13T11:16:58;100218.84;;;18.32;100.00
47054;BME280;32811;52.382;5.270;2023-10-13T11:19:36;100202.06;;;18.37;100.00
47054;BME280;32811;52.382;5.270;2023-10-13T11:22:14;100172.84;;;18.50;100.00
47054;BME280;32811;52.382;5.270;2023-10-13T11:25:01;100176.50;;;18.45;100.00
47054;BME280;32811;52.382;5.270;2023-10-13T11:27:37;100168.38;;;18.53;100.00
47054;BME280;32811;52.382;5.270;2023-10-13T11:30:27;100078.09;;;17.77;100.00
47054;BME280;32811;52.382;5.270;2023-10-13T11:33:05;100147.38;;;18.11;100.00
47054;BME280;32811;52.382;5.270;2023-10-13T11:35:40;100081.09;;;17.42;100.00
47054;BME280;32811;52.382;5.270;2023-10-13T11:41:00;100057.97;;;17.33;100.00
47054;BME280;32811;52.382;5.270;2023-10-13T11:43:39;100087.25;;;17.41;100.00
47054;BME280;32811;52.382;5.270;2023-10-13T11:46:24;100095.44;;;17.54;100.00
47054;BME280;32811;52.382;5.270;2023-10-13T11:49:10;100107.72;;;17.76;100.00
47054;BME280;32811;52.382;5.270;2023-10-13T11:51:54;100109.84;;;17.90;100.00
47054;BME280;32811;52.382;5.270;2023-10-13T11:54:47;100062.31;;;17.56;100.00
47054;BME280;32811;52.382;5.270;2023-10-13T11:57:18;100109.38;;;17.78;100.00
47054;BME280;32811;52.382;5.270;2023-10-13T11:59:46;100084.84;;;17.84;100.00
47054;BME280;32811;52.382;5.270;2023-10-13T12:02:28;100061.19;;;17.63;100.00
47054;BME280;32811;52.382;5.270;2023-10-13T12:05:00;100067.16;;;17.67;100.00
47054;BME280;32811;52.382;5.270;2023-10-13T12:08:00;100097.53;;;17.93;100.00
47054;BME280;32811;52.382;5.270;2023-10-13T12:10:36;100029.59;;;17.71;100.00
47054;BME280;32811;52.382;5.270;2023-10-13T12:13:49;100098.50;;;18.13;100.00
47054;BME280;32811;52.382;5.270;2023-10-13T12:16:16;100059.72;;;17.80;100.00
47054;BME280;32811;52.382;5.270;2023-10-13T12:18:46;100093.13;;;17.95;100.00
47054;BME280;32811;52.382;5.270;2023-10-13T12:21:20;100050.03;;;17.83;100.00
47054;BME280;32811;52.382;5.270;2023-10-13T12:23:51;100089.13;;;17.85;100.00
47054;BME280;32811;52.382;5.270;2023-10-13T12:26:27;100161.31;;;18.33;100.00
47054;BME280;32811;52.382;5.270;2023-10-13T12:33:11;100026.38;;;17.64;100.00
47054;BME280;32811;52.382;5.270;2023-10-13T12:40:39;100136.75;;;18.37;100.00
47054;BME280;32811;52.382;5.270;2023-10-13T12:47:19;100055.97;;;17.63;100.00
47054;BME280;32811;52.382;5.270;2023-10-13T12:50:33;100140.25;;;18.14;100.00
47054;BME280;32811;52.382;5.270;2023-10-13T12:57:02;100088.28;;;17.84;100.00
47054;BME280;32811;52.382;5.270;2023-10-13T12:59:40;100038.56;;;17.40;100.00
47054;BME280;32811;52.382;5.270;2023-10-13T13:02:34;100072.72;;;17.58;100.00
47054;BME280;32811;52.382;5.270;2023-10-13T13:05:46;100050.38;;;17.26;100.00
47054;BME280;32811;52.382;5.270;2023-10-13T13:08:48;100089.22;;;17.35;100.00
47054;BME280;32811;52.382;5.270;2023-10-13T13:11:24;100101.72;;;17.25;100.00
47054;BME280;32811;52.382;5.270;2023-10-13T13:13:56;100103.69;;;17.18;100.00
47054;BME280;32811;52.382;5.270;2023-10-13T13:16:23;100074.00;;;16.97;100.00
47054;BME280;32811;52.382;5.270;2023-10-13T13:19:17;100025.75;;;16.86;100.00
47054;BME280;32811;52.382;5.270;2023-10-13T13:22:07;100038.13;;;17.04;100.00
47054;BME280;32811;52.382;5.270;2023-10-13T13:28:31;100065.81;;;17.08;100.00
47054;BME280;32811;52.382;5.270;2023-10-13T13:32:03;100082.19;;;17.12;100.00
47054;BME280;32811;52.382;5.270;2023-10-13T13:35:16;100060.63;;;17.07;100.00
47054;BME280;32811;52.382;5.270;2023-10-13T13:38:10;100131.31;;;17.49;100.00
47054;BME280;32811;52.382;5.270;2023-10-13T13:41:12;100117.66;;;17.41;100.00
47054;BME280;32811;52.382;5.270;2023-10-13T13:44:15;100077.81;;;17.12;100.00
47054;BME280;32811;52.382;5.270;2023-10-13T13:47:18;100127.22;;;17.66;100.00
47054;BME280;32811;52.382;5.270;2023-10-13T13:50:27;100041.31;;;17.12;100.00
47054;BME280;32811;52.382;5.270;2023-10-13T13:53:14;100052.53;;;17.14;100.00
47054;BME280;32811;52.382;5.270;2023-10-13T13:56:18;100138.19;;;17.75;100.00
47054;BME280;32811;52.382;5.270;2023-10-13T13:59:14;100043.13;;;17.10;100.00
47054;BME280;32811;52.382;5.270;2023-10-13T14:01:46;100153.28;;;17.67;100.00
47054;BME280;32811;52.382;5.270;2023-10-13T14:04:14;100149.22;;;17.58;100.00
47054;BME280;32811;52.382;5.270;2023-10-13T14:06:44;100144.97;;;17.56;100.00
47054;BME280;32811;52.382;5.270;2023-10-13T14:09:11;100167.63;;;17.55;100.00
47054;BME280;32811;52.382;5.270;2023-10-13T14:11:42;100167.78;;;17.51;100.00
47054;BME280;32811;52.382;5.270;2023-10-13T14:14:27;100147.25;;;17.41;100.00
47054;BME280;32811;52.382;5.270;2023-10-13T14:16:55;100169.75;;;17.44;100.00
47054;BME280;32811;52.382;5.270;2023-10-13T14:19:33;100176.78;;;17.42;100.00
47054;BME280;32811;52.382;5.270;2023-10-13T14:22:00;100168.47;;;17.31;100.00
47054;BME280;32811;52.382;5.270;2023-10-13T14:24:34;100189.28;;;17.32;100.00
47054;BME280;32811;52.382;5.270;2023-10-13T14:27:03;100199.66;;;17.34;100.00
47054;BME280;32811;52.382;5.270;2023-10-13T14:29:44;100189.50;;;17.26;100.00
47054;BME280;32811;52.382;5.270;2023-10-13T14:32:12;100206.72;;;17.30;100.00
47054;BME280;32811;52.382;5.270;2023-10-13T14:34:41;100197.06;;;17.07;100.00
47054;BME280;32811;52.382;5.270;2023-10-13T14:37:08;100214.28;;;17.13;100.00
47054;BME280;32811;52.382;5.270;2023-10-13T14:39:39;100210.28;;;17.01;100.00
47054;BME280;32811;52.382;5.270;2023-10-13T14:42:09;100218.63;;;17.12;100.00
47054;BME280;32811;52.382;5.270;2023-10-13T14:44:35;100230.88;;;17.10;100.00
47054;BME280;32811;52.382;5.270;2023-10-13T14:47:03;100210.91;;;17.09;100.00
47054;BME280;32811;52.382;5.270;2023-10-13T14:49:35;100207.59;;;17.04;100.00
47054;BME280;32811;52.382;5.270;2023-10-13T14:52:02;100208.44;;;17.05;100.00
47054;BME280;32811;52.382;5.270;2023-10-13T14:54:29;100209.41;;;17.02;100.00
47054;BME280;32811;52.382;5.270;2023-10-13T14:57:02;100216.53;;;16.97;100.00
47054;BME280;32811;52.382;5.270;2023-10-13T14:59:29;100232.06;;;17.00;100.00
47054;BME280;32811;52.382;5.270;2023-10-13T15:02:01;100216.44;;;17.00;100.00
47054;BME280;32811;52.382;5.270;2023-10-13T15:04:30;100218.88;;;17.05;100.00
47054;BME280;32811;52.382;5.270;2023-10-13T15:07:00;100228.34;;;17.07;100.00
47054;BME280;32811;52.382;5.270;2023-10-13T15:09:29;100231.13;;;17.02;100.00
47054;BME280;32811;52.382;5.270;2023-10-13T15:11:55;100242.53;;;16.98;100.00
47054;BME280;32811;52.382;5.270;2023-10-13T15:14:22;100237.94;;;17.07;100.00
47054;BME280;32811;52.382;5.270;2023-10-13T15:16:51;100203.00;;;16.86;100.00
47054;BME280;32811;52.382;5.270;2023-10-13T15:19:27;100205.22;;;16.96;100.00
47054;BME280;32811;52.382;5.270;2023-10-13T15:21:56;100201.75;;;16.97;100.00
47054;BME280;32811;52.382;5.270;2023-10-13T15:24:23;100203.13;;;17.08;100.00
47054;BME280;32811;52.382;5.270;2023-10-13T15:26:57;100182.66;;;16.97;100.00
47054;BME280;32811;52.382;5.270;2023-10-13T15:29:29;100167.19;;;16.91;100.00
47054;BME280;32811;52.382;5.270;2023-10-13T15:32:04;100171.41;;;16.95;100.00
47054;BME280;32811;52.382;5.270;2023-10-13T15:34:31;100179.97;;;16.98;100.00
47054;BME280;32811;52.382;5.270;2023-10-13T15:36:59;100170.34;;;17.00;100.00
47054;BME280;32811;52.382;5.270;2023-10-13T15:39:27;100138.38;;;16.95;100.00
47054;BME280;32811;52.382;5.270;2023-10-13T15:41:55;100143.53;;;16.97;100.00
47054;BME280;32811;52.382;5.270;2023-10-13T15:44:26;100145.22;;;16.98;100.00